createdAt,value
2022-12-01T00:00:48.673Z,1020.09
2022-12-01T00:01:48.811Z,1020.13
2022-12-01T00:02:48.754Z,1020.11
2022-12-01T00:03:48.625Z,1020.10
2022-12-01T00:04:48.622Z,1020.10
2022-12-01T00:05:48.614Z,1020.08
2022-12-01T00:06:48.597Z,1020.11
2022-12-01T00:07:48.672Z,1020.08
2022-12-01T00:08:48.576Z,1020.07
2022-12-01T00:09:48.864Z,1020.03
2022-12-01T00:10:48.563Z,1020.06
2022-12-01T00:11:48.549Z,1020.04
2022-12-01T00:12:48.534Z,1020.04
2022-12-01T00:13:48.516Z,1020.02
2022-12-01T00:14:48.514Z,1020.10
2022-12-01T00:15:48.505Z,1020.06
2022-12-01T00:16:48.531Z,1020.08
2022-12-01T00:17:48.499Z,1020.07
2022-12-01T00:18:48.466Z,1020.12
2022-12-01T00:19:48.673Z,1020.13
2022-12-01T00:20:48.448Z,1020.10
2022-12-01T00:21:48.433Z,1020.06
2022-12-01T00:22:48.416Z,1020.04
2022-12-01T00:23:48.411Z,1020.04
2022-12-01T00:24:48.394Z,1020.12
2022-12-01T00:25:48.399Z,1020.10
2022-12-01T00:26:48.372Z,1020.10
2022-12-01T00:27:48.390Z,1020.14
2022-12-01T00:28:48.350Z,1020.16
2022-12-01T00:29:48.642Z,1020.08
2022-12-01T00:30:48.341Z,1020.04
2022-12-01T00:31:48.379Z,1020.06
2022-12-01T00:32:48.305Z,1020.04
2022-12-01T00:33:48.300Z,1020.11
2022-12-01T00:34:48.286Z,1020.16
2022-12-01T00:35:48.288Z,1020.13
2022-12-01T00:36:48.267Z,1020.06
2022-12-01T00:37:48.258Z,1020.11
2022-12-01T00:38:48.240Z,1020.05
2022-12-01T00:39:48.606Z,1020.01
2022-12-01T00:40:48.230Z,1020.04
2022-12-01T00:41:48.215Z,1020.01
2022-12-01T00:42:48.197Z,1019.99
2022-12-01T00:43:48.188Z,1020.08
2022-12-01T00:44:48.175Z,1020.10
2022-12-01T00:45:48.280Z,1020.02
2022-12-01T00:46:48.154Z,1020.07
2022-12-01T00:47:48.145Z,1020.09
2022-12-01T00:48:48.134Z,1020.13
2022-12-01T00:49:48.417Z,1020.14
2022-12-01T00:50:48.108Z,1020.05
2022-12-01T00:51:48.114Z,1020.14
2022-12-01T00:52:48.085Z,1020.10
2022-12-01T00:53:48.080Z,1020.10
2022-12-01T00:54:48.063Z,1020.08
2022-12-01T00:55:48.066Z,1020.12
2022-12-01T00:56:48.051Z,1020.09
2022-12-01T00:57:48.035Z,1020.15
2022-12-01T00:58:48.021Z,1020.13
2022-12-01T00:59:48.438Z,1020.17
2022-12-01T01:00:48.027Z,1020.16
2022-12-01T01:01:48.120Z,1020.17
2022-12-01T01:02:48.024Z,1020.20
2022-12-01T01:03:47.967Z,1020.21
2022-12-01T01:04:47.953Z,1020.17
2022-12-01T01:05:47.950Z,1020.20
2022-12-01T01:06:47.949Z,1020.20
2022-12-01T01:07:47.990Z,1020.19
2022-12-01T01:08:47.910Z,1020.24
2022-12-01T01:09:48.313Z,1020.20
2022-12-01T01:10:47.887Z,1020.19
2022-12-01T01:11:47.894Z,1020.20
2022-12-01T01:12:47.866Z,1020.17
2022-12-01T01:13:47.861Z,1020.21
2022-12-01T01:14:47.843Z,1020.23
2022-12-01T01:15:47.835Z,1020.19
2022-12-01T01:16:47.871Z,1020.20
2022-12-01T01:17:47.813Z,1020.26
2022-12-01T01:18:47.805Z,1020.23
2022-12-01T01:19:48.165Z,1020.21
2022-12-01T01:20:47.775Z,1020.21
2022-12-01T01:21:47.782Z,1020.24
2022-12-01T01:22:47.755Z,1020.24
2022-12-01T01:23:47.750Z,1020.18
2022-12-01T01:24:47.747Z,1020.19
2022-12-01T01:25:47.724Z,1020.21
2022-12-01T01:26:47.720Z,1020.17
2022-12-01T01:27:47.705Z,1020.19
2022-12-01T01:28:47.686Z,1020.24
2022-12-01T01:29:48.102Z,1020.22
2022-12-01T01:30:47.795Z,1020.25
2022-12-01T01:31:47.669Z,1020.25
2022-12-01T01:32:47.646Z,1020.22
2022-12-01T01:33:47.648Z,1020.25
2022-12-01T01:34:47.624Z,1020.27
2022-12-01T01:35:47.616Z,1020.30
2022-12-01T01:36:47.634Z,1020.32
2022-12-01T01:37:47.595Z,1020.29
2022-12-01T01:38:47.577Z,1020.28
2022-12-01T01:39:47.904Z,1020.29
2022-12-01T01:40:47.559Z,1020.25
2022-12-01T01:41:47.558Z,1020.31
2022-12-01T01:42:47.533Z,1020.28
2022-12-01T01:43:47.542Z,1020.30
2022-12-01T01:44:47.514Z,1020.28
2022-12-01T01:45:47.563Z,1020.34
2022-12-01T01:46:47.499Z,1020.33
2022-12-01T01:47:47.488Z,1020.31
2022-12-01T01:48:47.471Z,1020.33
2022-12-01T01:49:47.759Z,1020.33
2022-12-01T01:50:47.444Z,1020.34
2022-12-01T01:51:47.447Z,1020.34
2022-12-01T01:52:47.428Z,1020.41
2022-12-01T01:53:47.415Z,1020.38
2022-12-01T01:54:47.407Z,1020.40
2022-12-01T01:55:47.390Z,1020.41
2022-12-01T01:56:47.394Z,1020.43
2022-12-01T01:57:47.366Z,1020.39
2022-12-01T01:58:47.362Z,1020.40
2022-12-01T01:59:47.682Z,1020.44
2022-12-01T02:00:47.339Z,1020.41
2022-12-01T02:01:47.446Z,1020.39
2022-12-01T02:02:47.392Z,1020.41
2022-12-01T02:03:47.305Z,1020.38
2022-12-01T02:04:47.298Z,1020.38
2022-12-01T02:05:47.279Z,1020.40
2022-12-01T02:06:47.274Z,1020.43
2022-12-01T02:07:47.315Z,1020.40
2022-12-01T02:08:47.250Z,1020.43
2022-12-01T02:09:47.580Z,1020.39
2022-12-01T02:10:47.229Z,1020.40
2022-12-01T02:11:47.214Z,1020.33
2022-12-01T02:12:47.218Z,1020.37
2022-12-01T02:13:47.193Z,1020.34
2022-12-01T02:14:47.189Z,1020.34
2022-12-01T02:15:47.172Z,1020.32
2022-12-01T02:16:47.180Z,1020.33
2022-12-01T02:17:47.189Z,1020.32
2022-12-01T02:18:47.141Z,1020.33
2022-12-01T02:19:47.579Z,1020.32
2022-12-01T02:20:47.119Z,1020.31
2022-12-01T02:21:47.104Z,1020.33
2022-12-01T02:22:52.171Z,1020.30
2022-12-01T02:23:47.086Z,1020.28
2022-12-01T02:24:47.078Z,1020.30
2022-12-01T02:25:47.060Z,1020.28
2022-12-01T02:26:47.053Z,1020.31
2022-12-01T02:27:47.045Z,1020.33
2022-12-01T02:28:47.029Z,1020.30
2022-12-01T02:29:47.218Z,1020.31
2022-12-01T02:30:47.036Z,1020.31
2022-12-01T02:31:46.995Z,1020.32
2022-12-01T02:32:47.000Z,1020.33
2022-12-01T02:33:46.972Z,1020.34
2022-12-01T02:34:46.964Z,1020.33
2022-12-01T02:35:46.951Z,1020.35
2022-12-01T02:36:46.940Z,1020.32
2022-12-01T02:37:46.934Z,1020.32
2022-12-01T02:38:46.922Z,1020.28
2022-12-01T02:39:47.301Z,1020.29
2022-12-01T02:40:46.906Z,1020.24
2022-12-01T02:41:46.883Z,1020.26
2022-12-01T02:42:46.888Z,1020.21
2022-12-01T02:43:46.859Z,1020.28
2022-12-01T02:44:46.852Z,1020.25
2022-12-01T02:45:46.911Z,1020.27
2022-12-01T02:46:46.831Z,1020.29
2022-12-01T02:47:46.825Z,1020.30
2022-12-01T02:48:46.812Z,1020.32
2022-12-01T02:49:46.994Z,1020.32
2022-12-01T02:50:46.788Z,1020.28
2022-12-01T02:51:46.771Z,1020.26
2022-12-01T02:52:46.777Z,1020.29
2022-12-01T02:53:46.755Z,1020.31
2022-12-01T02:54:46.743Z,1020.28
2022-12-01T02:55:46.726Z,1020.31
2022-12-01T02:56:46.729Z,1020.34
2022-12-01T02:57:46.722Z,1020.36
2022-12-01T02:58:46.700Z,1020.30
2022-12-01T02:59:47.187Z,1020.29
2022-12-01T03:00:46.677Z,1020.31
2022-12-01T03:01:46.688Z,1020.28
2022-12-01T03:02:46.703Z,1020.26
2022-12-01T03:03:46.649Z,1020.25
2022-12-01T03:04:46.638Z,1020.26
2022-12-01T03:05:46.620Z,1020.23
2022-12-01T03:06:46.612Z,1020.27
2022-12-01T03:07:46.631Z,1020.26
2022-12-01T03:08:46.623Z,1020.31
2022-12-01T03:09:47.016Z,1020.28
2022-12-01T03:10:46.564Z,1020.29
2022-12-01T03:11:46.550Z,1020.28
2022-12-01T03:12:46.544Z,1020.27
2022-12-01T03:13:46.538Z,1020.32
2022-12-01T03:14:46.522Z,1020.31
2022-12-01T03:15:46.569Z,1020.34
2022-12-01T03:16:46.500Z,1020.29
2022-12-01T03:17:46.483Z,1020.31
2022-12-01T03:18:46.487Z,1020.26
2022-12-01T03:19:46.742Z,1020.29
2022-12-01T03:20:46.450Z,1020.30
2022-12-01T03:21:46.446Z,1020.25
2022-12-01T03:22:46.431Z,1020.30
2022-12-01T03:23:52.471Z,1020.24
2022-12-01T03:24:46.407Z,1020.28
2022-12-01T03:25:46.402Z,1020.28
2022-12-01T03:26:46.383Z,1020.29
2022-12-01T03:28:13.515Z,1020.30
2022-12-01T03:28:46.377Z,1020.28
2022-12-01T03:29:46.557Z,1020.28
2022-12-01T03:30:46.343Z,1020.30
2022-12-01T03:31:46.409Z,1020.28
2022-12-01T03:32:46.318Z,1020.29
2022-12-01T03:33:46.323Z,1020.34
2022-12-01T03:34:46.296Z,1020.31
2022-12-01T03:35:46.289Z,1020.30
2022-12-01T03:36:46.274Z,1020.32
2022-12-01T03:37:46.267Z,1020.35
2022-12-01T03:38:46.262Z,1020.34
2022-12-01T03:39:46.443Z,1020.33
2022-12-01T03:40:46.233Z,1020.27
2022-12-01T03:41:46.225Z,1020.26
2022-12-01T03:42:46.209Z,1020.31
2022-12-01T03:43:46.213Z,1020.31
2022-12-01T03:44:46.186Z,1020.29
2022-12-01T03:45:46.215Z,1020.31
2022-12-01T03:46:46.179Z,1020.32
2022-12-01T03:47:46.158Z,1020.37
2022-12-01T03:48:46.162Z,1020.34
2022-12-01T03:49:46.446Z,1020.30
2022-12-01T03:50:46.119Z,1020.33
2022-12-01T03:51:46.114Z,1020.36
2022-12-01T03:52:46.100Z,1020.33
2022-12-01T03:53:46.092Z,1020.30
2022-12-01T03:54:46.087Z,1020.31
2022-12-01T03:55:46.068Z,1020.31
2022-12-01T03:56:46.052Z,1020.34
2022-12-01T03:57:46.055Z,1020.34
2022-12-01T03:58:46.033Z,1020.36
2022-12-01T03:59:46.174Z,1020.38
2022-12-01T04:00:46.053Z,1020.37
2022-12-01T04:01:46.094Z,1020.37
2022-12-01T04:02:46.035Z,1020.37
2022-12-01T04:03:45.979Z,1020.39
2022-12-01T04:04:45.979Z,1020.40
2022-12-01T04:05:45.960Z,1020.39
2022-12-01T04:06:45.944Z,1020.43
2022-12-01T04:07:45.969Z,1020.41
2022-12-01T04:08:45.921Z,1020.38
2022-12-01T04:09:46.141Z,1020.40
2022-12-01T04:10:45.898Z,1020.38
2022-12-01T04:11:45.893Z,1020.39
2022-12-01T04:12:45.877Z,1020.36
2022-12-01T04:13:45.870Z,1020.35
2022-12-01T04:14:45.873Z,1020.37
2022-12-01T04:15:45.872Z,1020.33
2022-12-01T04:16:45.838Z,1020.36
2022-12-01T04:17:45.841Z,1020.39
2022-12-01T04:18:45.810Z,1020.38
2022-12-01T04:19:45.835Z,1020.43
2022-12-01T04:20:45.788Z,1020.40
2022-12-01T04:21:45.783Z,1020.39
2022-12-01T04:22:45.773Z,1020.43
2022-12-01T04:23:45.861Z,1020.41
2022-12-01T04:24:45.824Z,1020.44
2022-12-01T04:25:45.797Z,1020.40
2022-12-01T04:26:45.734Z,1020.44
2022-12-01T04:27:45.737Z,1020.45
2022-12-01T04:28:45.699Z,1020.47
2022-12-01T04:29:45.867Z,1020.45
2022-12-01T04:30:45.684Z,1020.42
2022-12-01T04:31:45.734Z,1020.47
2022-12-01T04:32:45.695Z,1020.49
2022-12-01T04:33:45.656Z,1020.45
2022-12-01T04:34:45.692Z,1020.46
2022-12-01T04:35:45.627Z,1020.42
2022-12-01T04:36:45.610Z,1020.47
2022-12-01T04:37:45.607Z,1020.41
2022-12-01T04:38:45.588Z,1020.41
2022-12-01T04:39:45.596Z,1020.41
2022-12-01T04:40:45.568Z,1020.41
2022-12-01T04:41:45.560Z,1020.36
2022-12-01T04:42:45.545Z,1020.36
2022-12-01T04:43:45.538Z,1020.36
2022-12-01T04:44:45.533Z,1020.33
2022-12-01T04:45:45.517Z,1020.39
2022-12-01T04:46:45.545Z,1020.35
2022-12-01T04:47:45.495Z,1020.31
2022-12-01T04:48:45.478Z,1020.35
2022-12-01T04:49:45.483Z,1020.36
2022-12-01T04:50:45.456Z,1020.37
2022-12-01T04:51:45.449Z,1020.34
2022-12-01T04:52:45.435Z,1020.33
2022-12-01T04:53:45.428Z,1020.35
2022-12-01T04:54:45.425Z,1020.36
2022-12-01T04:55:45.409Z,1020.35
2022-12-01T04:56:45.389Z,1020.42
2022-12-01T04:57:45.388Z,1020.37
2022-12-01T04:58:45.462Z,1020.36
2022-12-01T04:59:45.371Z,1020.40
2022-12-01T05:00:45.407Z,1020.38
2022-12-01T05:01:45.380Z,1020.40
2022-12-01T05:02:45.335Z,1020.40
2022-12-01T05:03:45.317Z,1020.42
2022-12-01T05:04:45.312Z,1020.34
2022-12-01T05:05:45.295Z,1020.38
2022-12-01T05:06:45.287Z,1020.35
2022-12-01T05:07:45.348Z,1020.34
2022-12-01T05:08:45.256Z,1020.39
2022-12-01T05:09:45.268Z,1020.38
2022-12-01T05:10:45.236Z,1020.33
2022-12-01T05:11:45.228Z,1020.36
2022-12-01T05:12:45.211Z,1020.33
2022-12-01T05:13:45.210Z,1020.39
2022-12-01T05:14:45.190Z,1020.39
2022-12-01T05:15:45.194Z,1020.39
2022-12-01T05:16:45.318Z,1020.38
2022-12-01T05:17:45.203Z,1020.36
2022-12-01T05:18:45.200Z,1020.39
2022-12-01T05:19:45.139Z,1020.44
2022-12-01T05:20:45.138Z,1020.38
2022-12-01T05:21:45.117Z,1020.41
2022-12-01T05:23:04.981Z,1020.45
2022-12-01T05:23:45.102Z,1020.44
2022-12-01T05:24:45.085Z,1020.46
2022-12-01T05:25:45.090Z,1020.46
2022-12-01T05:26:45.058Z,1020.47
2022-12-01T05:27:45.077Z,1020.47
2022-12-01T05:28:45.045Z,1020.44
2022-12-01T05:29:45.031Z,1020.44
2022-12-01T05:30:45.026Z,1020.43
2022-12-01T05:31:45.070Z,1020.43
2022-12-01T05:32:44.993Z,1020.42
2022-12-01T05:33:44.987Z,1020.38
2022-12-01T05:34:44.972Z,1020.48
2022-12-01T05:35:44.979Z,1020.40
2022-12-01T05:36:44.948Z,1020.47
2022-12-01T05:37:44.941Z,1020.44
2022-12-01T05:38:44.927Z,1020.47
2022-12-01T05:39:44.919Z,1020.52
2022-12-01T05:40:44.913Z,1020.47
2022-12-01T05:41:44.898Z,1020.45
2022-12-01T05:42:44.881Z,1020.48
2022-12-01T05:43:44.877Z,1020.50
2022-12-01T05:44:44.858Z,1020.51
2022-12-01T05:45:44.890Z,1020.49
2022-12-01T05:46:44.837Z,1020.47
2022-12-01T05:47:44.831Z,1020.46
2022-12-01T05:48:44.816Z,1020.43
2022-12-01T05:49:44.808Z,1020.50
2022-12-01T05:50:44.810Z,1020.53
2022-12-01T05:51:44.790Z,1020.51
2022-12-01T05:52:44.773Z,1020.57
2022-12-01T05:53:44.763Z,1020.51
2022-12-01T05:54:44.751Z,1020.55
2022-12-01T05:55:44.751Z,1020.57
2022-12-01T05:56:44.727Z,1020.53
2022-12-01T05:57:44.720Z,1020.56
2022-12-01T05:58:44.706Z,1020.55
2022-12-01T05:59:44.698Z,1020.54
2022-12-01T06:00:46.211Z,1020.56
2022-12-01T06:01:44.760Z,1020.48
2022-12-01T06:02:44.672Z,1020.56
2022-12-01T06:03:44.692Z,1020.54
2022-12-01T06:04:44.639Z,1020.54
2022-12-01T06:05:44.654Z,1020.54
2022-12-01T06:06:44.621Z,1020.53
2022-12-01T06:07:44.632Z,1020.55
2022-12-01T06:08:44.602Z,1020.55
2022-12-01T06:09:44.585Z,1020.58
2022-12-01T06:10:44.588Z,1020.57
2022-12-01T06:11:44.561Z,1020.57
2022-12-01T06:12:44.556Z,1020.64
2022-12-01T06:13:44.542Z,1020.64
2022-12-01T06:14:44.618Z,1020.59
2022-12-01T06:15:44.541Z,1020.62
2022-12-01T06:16:44.550Z,1020.58
2022-12-01T06:17:44.499Z,1020.59
2022-12-01T06:18:44.516Z,1020.62
2022-12-01T06:19:44.523Z,1020.62
2022-12-01T06:20:44.470Z,1020.64
2022-12-01T06:21:44.463Z,1020.67
2022-12-01T06:22:44.445Z,1020.63
2022-12-01T06:23:44.431Z,1020.68
2022-12-01T06:24:44.420Z,1020.63
2022-12-01T06:25:44.413Z,1020.67
2022-12-01T06:26:44.406Z,1020.62
2022-12-01T06:27:44.394Z,1020.72
2022-12-01T06:28:44.375Z,1020.71
2022-12-01T06:29:44.373Z,1020.68
2022-12-01T06:30:44.356Z,1020.72
2022-12-01T06:31:44.476Z,1020.70
2022-12-01T06:32:44.332Z,1020.77
2022-12-01T06:33:44.329Z,1020.67
2022-12-01T06:34:44.311Z,1020.69
2022-12-01T06:35:44.302Z,1020.72
2022-12-01T06:36:44.304Z,1020.71
2022-12-01T06:37:44.284Z,1020.71
2022-12-01T06:38:44.265Z,1020.66
2022-12-01T06:39:44.260Z,1020.70
2022-12-01T06:40:44.243Z,1020.71
2022-12-01T06:41:44.268Z,1020.73
2022-12-01T06:42:44.227Z,1020.71
2022-12-01T06:43:44.216Z,1020.70
2022-12-01T06:44:44.202Z,1020.77
2022-12-01T06:45:44.246Z,1020.72
2022-12-01T06:46:44.187Z,1020.70
2022-12-01T06:47:44.176Z,1020.76
2022-12-01T06:48:44.159Z,1020.68
2022-12-01T06:49:44.151Z,1020.76
2022-12-01T06:50:44.141Z,1020.75
2022-12-01T06:51:44.141Z,1020.76
2022-12-01T06:52:44.116Z,1020.74
2022-12-01T06:53:44.108Z,1020.74
2022-12-01T06:54:44.092Z,1020.76
2022-12-01T06:55:44.084Z,1020.77
2022-12-01T06:56:44.081Z,1020.71
2022-12-01T06:57:44.062Z,1020.73
2022-12-01T06:58:44.051Z,1020.77
2022-12-01T06:59:44.041Z,1020.77
2022-12-01T07:00:48.983Z,1020.81
2022-12-01T07:01:44.097Z,1020.79
2022-12-01T07:02:44.084Z,1020.85
2022-12-01T07:03:44.018Z,1020.81
2022-12-01T07:04:43.986Z,1020.80
2022-12-01T07:05:44.008Z,1020.85
2022-12-01T07:06:43.970Z,1020.84
2022-12-01T07:07:44.008Z,1020.84
2022-12-01T07:08:43.937Z,1020.86
2022-12-01T07:09:43.928Z,1020.86
2022-12-01T07:10:43.914Z,1020.87
2022-12-01T07:11:43.916Z,1020.86
2022-12-01T07:12:43.893Z,1020.92
2022-12-01T07:13:43.886Z,1020.91
2022-12-01T07:14:43.872Z,1020.95
2022-12-01T07:15:43.865Z,1020.90
2022-12-01T07:16:43.893Z,1020.89
2022-12-01T07:17:43.842Z,1020.91
2022-12-01T07:18:43.828Z,1020.89
2022-12-01T07:19:43.821Z,1020.91
2022-12-01T07:20:43.808Z,1020.93
2022-12-01T07:21:43.809Z,1020.91
2022-12-01T07:22:43.785Z,1020.98
2022-12-01T07:23:43.787Z,1020.98
2022-12-01T07:24:43.763Z,1020.99
2022-12-01T07:25:43.767Z,1020.97
2022-12-01T07:26:43.825Z,1021.02
2022-12-01T07:27:43.733Z,1021.03
2022-12-01T07:28:43.719Z,1021.09
2022-12-01T07:29:43.732Z,1021.07
2022-12-01T07:30:43.748Z,1021.10
2022-12-01T07:31:43.698Z,1021.07
2022-12-01T07:32:43.683Z,1021.10
2022-12-01T07:33:43.667Z,1021.05
2022-12-01T07:34:43.652Z,1021.04
2022-12-01T07:35:43.642Z,1021.06
2022-12-01T07:36:43.648Z,1021.11
2022-12-01T07:37:43.628Z,1021.10
2022-12-01T07:38:43.606Z,1021.09
2022-12-01T07:39:43.599Z,1021.09
2022-12-01T07:40:43.602Z,1021.07
2022-12-01T07:41:43.578Z,1021.06
2022-12-01T07:42:43.649Z,1021.10
2022-12-01T07:43:43.574Z,1021.07
2022-12-01T07:44:43.539Z,1021.13
2022-12-01T07:45:43.602Z,1021.12
2022-12-01T07:46:43.606Z,1021.08
2022-12-01T07:47:43.551Z,1021.10
2022-12-01T07:48:43.497Z,1021.09
2022-12-01T07:49:43.488Z,1021.07
2022-12-01T07:50:43.474Z,1021.07
2022-12-01T07:51:43.470Z,1021.10
2022-12-01T07:52:43.461Z,1021.10
2022-12-01T07:53:43.446Z,1021.10
2022-12-01T07:54:43.430Z,1021.08
2022-12-01T07:55:43.425Z,1021.10
2022-12-01T07:56:43.409Z,1021.09
2022-12-01T07:57:43.412Z,1021.12
2022-12-01T07:58:43.392Z,1021.09
2022-12-01T07:59:43.378Z,1021.10
2022-12-01T08:00:43.362Z,1021.12
2022-12-01T08:01:44.931Z,1021.08
2022-12-01T08:02:43.422Z,1021.11
2022-12-01T08:03:43.332Z,1021.08
2022-12-01T08:04:43.373Z,1021.12
2022-12-01T08:05:43.317Z,1021.12
2022-12-01T08:06:43.332Z,1021.12
2022-12-01T08:07:43.349Z,1021.14
2022-12-01T08:08:43.279Z,1021.14
2022-12-01T08:09:43.274Z,1021.12
2022-12-01T08:10:43.252Z,1021.16
2022-12-01T08:11:43.247Z,1021.13
2022-12-01T08:12:43.267Z,1021.18
2022-12-01T08:13:43.227Z,1021.15
2022-12-01T08:14:43.210Z,1021.15
2022-12-01T08:15:43.247Z,1021.19
2022-12-01T08:16:43.185Z,1021.17
2022-12-01T08:17:43.257Z,1021.23
2022-12-01T08:18:43.175Z,1021.24
2022-12-01T08:19:43.192Z,1021.24
2022-12-01T08:20:43.141Z,1021.27
2022-12-01T08:21:43.134Z,1021.25
2022-12-01T08:22:43.140Z,1021.29
2022-12-01T08:23:43.113Z,1021.29
2022-12-01T08:24:43.099Z,1021.26
2022-12-01T08:25:43.091Z,1021.26
2022-12-01T08:26:43.076Z,1021.28
2022-12-01T08:27:43.103Z,1021.29
2022-12-01T08:28:43.052Z,1021.28
2022-12-01T08:29:43.047Z,1021.31
2022-12-01T08:30:43.074Z,1021.32
2022-12-01T08:31:43.025Z,1021.28
2022-12-01T08:32:43.021Z,1021.30
2022-12-01T08:33:43.005Z,1021.32
2022-12-01T08:34:42.991Z,1021.35
2022-12-01T08:35:42.983Z,1021.38
2022-12-01T08:36:42.967Z,1021.42
2022-12-01T08:37:42.976Z,1021.46
2022-12-01T08:38:42.944Z,1021.40
2022-12-01T08:39:42.936Z,1021.43
2022-12-01T08:40:42.921Z,1021.40
2022-12-01T08:41:42.914Z,1021.44
2022-12-01T08:42:42.902Z,1021.41
2022-12-01T08:43:58.007Z,1021.39
2022-12-01T08:44:42.987Z,1021.43
2022-12-01T08:45:42.870Z,1021.41
2022-12-01T08:46:42.876Z,1021.42
2022-12-01T08:47:42.849Z,1021.46
2022-12-01T08:48:42.844Z,1021.42
2022-12-01T08:49:42.829Z,1021.43
2022-12-01T08:50:42.811Z,1021.42
2022-12-01T08:51:42.805Z,1021.42
2022-12-01T08:52:42.789Z,1021.38
2022-12-01T08:53:45.649Z,1021.40
2022-12-01T08:54:42.766Z,1021.40
2022-12-01T08:55:42.763Z,1021.41
2022-12-01T08:56:42.745Z,1021.42
2022-12-01T08:57:42.737Z,1021.40
2022-12-01T08:58:42.743Z,1021.42
2022-12-01T08:59:42.716Z,1021.37
2022-12-01T09:00:42.713Z,1021.43
2022-12-01T09:01:42.744Z,1021.45
2022-12-01T09:02:42.745Z,1021.44
2022-12-01T09:03:42.684Z,1021.41
2022-12-01T09:04:42.662Z,1021.49
2022-12-01T09:05:42.653Z,1021.42
2022-12-01T09:06:42.636Z,1021.44
2022-12-01T09:07:42.644Z,1021.38
2022-12-01T09:08:42.728Z,1021.43
2022-12-01T09:09:42.605Z,1021.46
2022-12-01T09:10:42.590Z,1021.44
2022-12-01T09:11:42.583Z,1021.42
2022-12-01T09:12:42.569Z,1021.38
2022-12-01T09:13:42.572Z,1021.38
2022-12-01T09:14:42.546Z,1021.48
2022-12-01T09:15:42.538Z,1021.43
2022-12-01T09:16:42.600Z,1021.47
2022-12-01T09:17:42.517Z,1021.47
2022-12-01T09:18:42.513Z,1021.53
2022-12-01T09:19:42.497Z,1021.46
2022-12-01T09:20:42.480Z,1021.52
2022-12-01T09:21:42.474Z,1021.53
2022-12-01T09:22:42.460Z,1021.52
2022-12-01T09:23:42.462Z,1021.49
2022-12-01T09:24:42.441Z,1021.52
2022-12-01T09:25:42.423Z,1021.50
2022-12-01T09:26:42.418Z,1021.56
2022-12-01T09:27:42.404Z,1021.51
2022-12-01T09:28:48.478Z,1021.52
2022-12-01T09:29:42.380Z,1021.51
2022-12-01T09:30:42.381Z,1021.56
2022-12-01T09:31:42.402Z,1021.53
2022-12-01T09:32:42.355Z,1021.54
2022-12-01T09:33:42.348Z,1021.56
2022-12-01T09:34:42.331Z,1021.55
2022-12-01T09:35:42.313Z,1021.56
2022-12-01T09:36:42.308Z,1021.55
2022-12-01T09:37:42.294Z,1021.57
2022-12-01T09:38:42.299Z,1021.51
2022-12-01T09:39:42.271Z,1021.56
2022-12-01T09:40:42.275Z,1021.59
2022-12-01T09:41:42.252Z,1021.55
2022-12-01T09:42:42.244Z,1021.57
2022-12-01T09:43:42.237Z,1021.59
2022-12-01T09:44:42.244Z,1021.56
2022-12-01T09:45:42.206Z,1021.55
2022-12-01T09:46:42.245Z,1021.57
2022-12-01T09:47:42.183Z,1021.57
2022-12-01T09:48:42.190Z,1021.55
2022-12-01T09:49:42.170Z,1021.57
2022-12-01T09:50:42.155Z,1021.57
2022-12-01T09:51:42.140Z,1021.56
2022-12-01T09:52:42.133Z,1021.57
2022-12-01T09:53:42.167Z,1021.55
2022-12-01T09:54:42.145Z,1021.57
2022-12-01T09:55:42.102Z,1021.53
2022-12-01T09:56:42.088Z,1021.52
2022-12-01T09:57:42.075Z,1021.54
2022-12-01T09:58:42.076Z,1021.54
2022-12-01T09:59:42.058Z,1021.55
2022-12-01T10:00:42.065Z,1021.54
2022-12-01T10:01:42.097Z,1021.57
2022-12-01T10:02:42.021Z,1021.48
2022-12-01T10:03:42.023Z,1021.44
2022-12-01T10:04:42.001Z,1021.49
2022-12-01T10:06:02.903Z,1021.42
2022-12-01T10:06:42.069Z,1021.43
2022-12-01T10:07:42.001Z,1021.45
2022-12-01T10:08:41.970Z,1021.39
2022-12-01T10:09:41.955Z,1021.41
2022-12-01T10:10:41.935Z,1021.43
2022-12-01T10:11:41.968Z,1021.42
2022-12-01T10:12:41.935Z,1021.39
2022-12-01T10:13:43.854Z,1021.43
2022-12-01T10:14:41.891Z,1021.43
2022-12-01T10:15:41.883Z,1021.43
2022-12-01T10:16:41.933Z,1021.44
2022-12-01T10:17:41.857Z,1021.34
2022-12-01T10:18:41.864Z,1021.40
2022-12-01T10:19:41.837Z,1021.43
2022-12-01T10:20:41.820Z,1021.40
2022-12-01T10:21:41.827Z,1021.39
2022-12-01T10:22:41.797Z,1021.38
2022-12-01T10:23:41.792Z,1021.37
2022-12-01T10:24:41.790Z,1021.39
2022-12-01T10:25:41.773Z,1021.34
2022-12-01T10:26:41.761Z,1021.35
2022-12-01T10:27:41.751Z,1021.32
2022-12-01T10:28:41.734Z,1021.34
2022-12-01T10:29:46.418Z,1021.35
2022-12-01T10:30:41.719Z,1021.31
2022-12-01T10:31:41.735Z,1021.31
2022-12-01T10:32:41.691Z,1021.29
2022-12-01T10:33:41.683Z,1021.27
2022-12-01T10:34:41.676Z,1021.29
2022-12-01T10:35:41.660Z,1021.33
2022-12-01T10:36:41.644Z,1021.25
2022-12-01T10:37:41.681Z,1021.29
2022-12-01T10:38:41.628Z,1021.26
2022-12-01T10:39:41.629Z,1021.24
2022-12-01T10:40:41.603Z,1021.26
2022-12-01T10:41:41.599Z,1021.26
2022-12-01T10:42:41.580Z,1021.26
2022-12-01T10:43:41.571Z,1021.28
2022-12-01T10:44:41.566Z,1021.36
2022-12-01T10:45:41.569Z,1021.33
2022-12-01T10:46:41.547Z,1021.27
2022-12-01T10:47:41.529Z,1021.31
2022-12-01T10:48:41.516Z,1021.29
2022-12-01T10:49:41.517Z,1021.26
2022-12-01T10:50:41.492Z,1021.26
2022-12-01T10:51:41.488Z,1021.24
2022-12-01T10:52:41.481Z,1021.25
2022-12-01T10:53:41.465Z,1021.23
2022-12-01T10:54:41.458Z,1021.28
2022-12-01T10:55:46.501Z,1021.23
2022-12-01T10:56:41.436Z,1021.23
2022-12-01T10:57:41.423Z,1021.21
2022-12-01T10:58:41.407Z,1021.22
2022-12-01T10:59:41.411Z,1021.27
2022-12-01T11:00:59.640Z,1021.17
2022-12-01T11:01:41.577Z,1021.19
2022-12-01T11:02:41.497Z,1021.25
2022-12-01T11:03:41.454Z,1021.26
2022-12-01T11:04:41.352Z,1021.23
2022-12-01T11:05:41.335Z,1021.26
2022-12-01T11:06:41.319Z,1021.24
2022-12-01T11:07:41.341Z,1021.20
2022-12-01T11:08:41.297Z,1021.21
2022-12-01T11:09:41.306Z,1021.18
2022-12-01T11:10:41.277Z,1021.17
2022-12-01T11:11:41.274Z,1021.16
2022-12-01T11:12:41.260Z,1021.12
2022-12-01T11:13:41.248Z,1021.19
2022-12-01T11:14:41.240Z,1021.12
2022-12-01T11:15:41.225Z,1021.16
2022-12-01T11:16:41.282Z,1021.14
2022-12-01T11:17:41.215Z,1021.18
2022-12-01T11:18:41.239Z,1021.17
2022-12-01T11:19:41.353Z,1021.18
2022-12-01T11:20:41.211Z,1021.20
2022-12-01T11:21:41.162Z,1021.20
2022-12-01T11:22:41.147Z,1021.14
2022-12-01T11:23:41.139Z,1021.18
2022-12-01T11:24:41.133Z,1021.14
2022-12-01T11:25:41.119Z,1021.14
2022-12-01T11:26:41.101Z,1021.14
2022-12-01T11:27:41.096Z,1021.13
2022-12-01T11:28:41.092Z,1021.11
2022-12-01T11:29:41.084Z,1021.13
2022-12-01T11:30:41.059Z,1021.15
2022-12-01T11:31:41.118Z,1021.18
2022-12-01T11:32:41.037Z,1021.14
2022-12-01T11:33:41.033Z,1021.10
2022-12-01T11:34:41.025Z,1021.09
2022-12-01T11:35:41.009Z,1021.06
2022-12-01T11:36:40.993Z,1021.06
2022-12-01T11:37:42.004Z,1021.06
2022-12-01T11:38:40.972Z,1021.07
2022-12-01T11:39:40.972Z,1021.13
2022-12-01T11:40:40.948Z,1021.09
2022-12-01T11:41:40.942Z,1021.09
2022-12-01T11:42:40.929Z,1021.13
2022-12-01T11:43:46.513Z,1021.10
2022-12-01T11:44:51.483Z,1021.12
2022-12-01T11:45:40.973Z,1021.11
2022-12-01T11:46:50.054Z,1021.11
2022-12-01T11:47:40.883Z,1021.12
2022-12-01T11:48:40.864Z,1021.14
2022-12-01T11:49:46.756Z,1021.14
2022-12-01T11:50:40.855Z,1021.08
2022-12-01T11:51:40.834Z,1021.11
2022-12-01T11:52:40.821Z,1021.11
2022-12-01T11:53:40.813Z,1021.16
2022-12-01T11:54:40.796Z,1021.08
2022-12-01T11:55:40.802Z,1021.12
2022-12-01T11:56:40.778Z,1021.13
2022-12-01T11:57:40.768Z,1021.13
2022-12-01T11:58:40.814Z,1021.10
2022-12-01T11:59:40.750Z,1021.06
2022-12-01T12:00:40.745Z,1021.11
2022-12-01T12:01:40.733Z,1021.11
2022-12-01T12:02:40.742Z,1021.06
2022-12-01T12:03:40.723Z,1021.10
2022-12-01T12:04:40.690Z,1021.02
2022-12-01T12:05:40.694Z,1021.05